createdAt,value
2022-12-15T00:02:13.646Z,97895.44
2022-12-15T00:04:59.042Z,97896.69
2022-12-15T00:07:43.846Z,97905.28
2022-12-15T00:10:29.353Z,97907.47
2022-12-15T00:13:14.883Z,97903.09
2022-12-15T00:15:59.796Z,97911.22
2022-12-15T00:18:45.087Z,97912.03
2022-12-15T00:21:30.091Z,97909.34
2022-12-15T00:24:14.955Z,97906.19
2022-12-15T00:26:59.882Z,97907.94
2022-12-15T00:29:45.267Z,97903.16
2022-12-15T00:32:30.667Z,97904.53
2022-12-15T00:35:15.538Z,97899.00
2022-12-15T00:38:00.378Z,97899.69
2022-12-15T00:40:26.939Z,97906.22
2022-12-15T00:42:53.497Z,97906.97
2022-12-15T00:45:20.053Z,97910.28
2022-12-15T00:47:46.621Z,97915.34
2022-12-15T00:50:31.461Z,97916.59
2022-12-15T00:53:16.606Z,97923.72
2022-12-15T00:56:01.370Z,97926.13
2022-12-15T00:58:46.347Z,97930.81
2022-12-15T01:01:31.306Z,97933.06
2022-12-15T01:04:16.663Z,97922.75
2022-12-15T01:07:01.738Z,97934.78
2022-12-15T01:09:46.737Z,97943.53
2022-12-15T01:12:31.642Z,97929.06
2022-12-15T01:15:16.572Z,97946.50
2022-12-15T01:18:01.566Z,97938.06
2022-12-15T01:20:32.652Z,97950.97
2022-12-15T01:22:59.412Z,97948.78
2022-12-15T01:25:26.255Z,97955.34
2022-12-15T01:27:53.005Z,97966.72
2022-12-15T01:30:22.341Z,97970.25
2022-12-15T01:32:49.226Z,97968.09
2022-12-15T01:35:16.285Z,97968.47
2022-12-15T01:37:43.363Z,97970.97
2022-12-15T01:40:33.220Z,97975.00
2022-12-15T01:42:59.854Z,97979.63
2022-12-15T01:45:29.367Z,97972.03
2022-12-15T01:48:20.481Z,97980.69
2022-12-15T01:51:12.642Z,97990.75
2022-12-15T01:53:54.311Z,97992.34
2022-12-15T01:56:23.266Z,97990.53
2022-12-15T01:58:53.807Z,98006.88
2022-12-15T02:01:21.045Z,98005.22
2022-12-15T02:03:48.419Z,98015.44
2022-12-15T02:06:16.555Z,98016.28
2022-12-15T02:08:46.917Z,98012.31
2022-12-15T02:11:35.247Z,98013.69
2022-12-15T02:14:03.842Z,98012.78
2022-12-15T02:17:16.354Z,98008.97
2022-12-15T02:19:51.862Z,98014.72
2022-12-15T02:22:55.403Z,98014.19
2022-12-15T02:25:41.833Z,98021.94
2022-12-15T02:28:14.747Z,98019.41
2022-12-15T02:31:12.692Z,98028.78
2022-12-15T02:34:00.171Z,98024.56
2022-12-15T02:36:33.440Z,98024.63
2022-12-15T02:39:00.073Z,98023.28
2022-12-15T02:41:37.467Z,98025.72
2022-12-15T02:44:14.917Z,98022.94
2022-12-15T02:46:47.568Z,98027.94
2022-12-15T02:49:26.786Z,98025.66
2022-12-15T02:52:11.752Z,98022.84
2022-12-15T02:55:00.902Z,98021.53
2022-12-15T02:57:38.457Z,98020.63
2022-12-15T03:00:09.669Z,98029.63
2022-12-15T03:02:40.239Z,98027.41
2022-12-15T03:05:08.285Z,98034.94
2022-12-15T03:07:35.156Z,98037.75
2022-12-15T03:10:04.581Z,98048.97
2022-12-15T03:12:31.181Z,98052.44
2022-12-15T03:14:58.024Z,98048.09
2022-12-15T03:17:24.666Z,98055.00
2022-12-15T03:19:51.406Z,98062.56
2022-12-15T03:22:18.039Z,98058.69
2022-12-15T03:24:44.699Z,98063.28
2022-12-15T03:27:12.011Z,98071.53
2022-12-15T03:29:38.600Z,98072.13
2022-12-15T03:32:05.647Z,98076.28
2022-12-15T03:34:32.348Z,98084.19
2022-12-15T03:36:59.241Z,98083.50
2022-12-15T03:39:25.753Z,98086.63
2022-12-15T03:41:52.321Z,98093.53
2022-12-15T03:44:18.885Z,98090.31
2022-12-15T03:46:45.435Z,98090.63
2022-12-15T03:49:13.499Z,98097.97
2022-12-15T03:51:40.262Z,98100.72
2022-12-15T03:54:07.359Z,98104.66
2022-12-15T03:56:34.006Z,98096.72
2022-12-15T03:59:00.585Z,98103.50
2022-12-15T04:01:35.221Z,98101.22
2022-12-15T04:04:03.606Z,98106.81
2022-12-15T04:06:30.871Z,98108.19
2022-12-15T04:08:57.494Z,98115.19
2022-12-15T04:11:24.085Z,98116.88
2022-12-15T04:13:50.609Z,98121.34
2022-12-15T04:16:20.071Z,98140.72
2022-12-15T04:18:46.943Z,98146.81
2022-12-15T04:21:13.506Z,98151.13
2022-12-15T04:24:00.486Z,98147.09
2022-12-15T04:26:45.880Z,98150.34
2022-12-15T04:29:30.919Z,98154.72
2022-12-15T04:32:16.036Z,98161.72
2022-12-15T04:35:01.411Z,98159.63
2022-12-15T04:37:46.593Z,98166.81
2022-12-15T04:40:32.033Z,98165.13
2022-12-15T04:43:17.295Z,98172.13
2022-12-15T04:46:02.312Z,98180.13
2022-12-15T04:48:47.155Z,98178.28
2022-12-15T04:51:32.298Z,98199.81
2022-12-15T04:54:17.571Z,98202.03
2022-12-15T04:57:02.629Z,98195.66
2022-12-15T04:59:47.915Z,98190.13
2022-12-15T05:02:33.391Z,98189.88
2022-12-15T05:05:20.324Z,98193.53
2022-12-15T05:08:05.174Z,98196.34
2022-12-15T05:10:50.113Z,98210.56
2022-12-15T05:13:35.380Z,98205.63
2022-12-15T05:16:20.838Z,98206.66
2022-12-15T05:19:06.182Z,98201.28
2022-12-15T05:21:51.067Z,98209.00
2022-12-15T05:24:36.179Z,98216.13
2022-12-15T05:27:21.296Z,98234.97
2022-12-15T05:30:06.271Z,98228.66
2022-12-15T05:32:33.372Z,98236.03
2022-12-15T05:35:01.249Z,98230.38
2022-12-15T05:37:27.897Z,98230.91
2022-12-15T05:39:54.498Z,98223.75
2022-12-15T05:42:21.108Z,98232.59
2022-12-15T05:44:47.882Z,98230.06
2022-12-15T05:47:16.425Z,98227.22
2022-12-15T05:49:43.010Z,98235.00
2022-12-15T05:52:09.600Z,98235.94
2022-12-15T05:54:36.175Z,98246.69
2022-12-15T05:57:03.010Z,98253.50
2022-12-15T05:59:29.635Z,98250.91
2022-12-15T06:01:56.252Z,98257.06
2022-12-15T06:04:23.071Z,98260.88
2022-12-15T06:06:49.705Z,98264.31
2022-12-15T06:09:16.299Z,98276.28
2022-12-15T06:11:43.456Z,98273.59
2022-12-15T06:14:10.267Z,98278.97
2022-12-15T06:16:42.560Z,98274.81
2022-12-15T06:19:16.481Z,98283.19
2022-12-15T06:21:43.090Z,98284.47
2022-12-15T06:24:10.396Z,98286.44
2022-12-15T06:26:38.833Z,98284.31
2022-12-15T06:29:08.615Z,98286.69
2022-12-15T06:31:37.159Z,98293.75
2022-12-15T06:34:06.864Z,98295.00
2022-12-15T06:36:33.689Z,98298.19
2022-12-15T06:39:02.104Z,98305.03
2022-12-15T06:41:32.656Z,98311.78
2022-12-15T06:44:00.400Z,98310.47
2022-12-15T06:46:28.654Z,98313.94
2022-12-15T06:48:55.549Z,98321.22
2022-12-15T06:51:22.451Z,98328.31
2022-12-15T06:53:49.820Z,98333.78
2022-12-15T06:56:33.219Z,98342.72
2022-12-15T06:59:01.809Z,98336.25
2022-12-15T07:01:29.350Z,98334.22
2022-12-15T07:03:56.862Z,98339.22
2022-12-15T07:06:23.803Z,98332.09
2022-12-15T07:08:52.803Z,98344.19
2022-12-15T07:11:21.727Z,98341.41
2022-12-15T07:13:52.411Z,98345.44
2022-12-15T07:16:20.056Z,98346.56
2022-12-15T07:18:46.848Z,98360.97
2022-12-15T07:21:13.491Z,98355.22
2022-12-15T07:23:54.078Z,98358.06
2022-12-15T07:26:22.063Z,98361.22
2022-12-15T07:28:48.692Z,98355.97
2022-12-15T07:31:15.704Z,98368.16
2022-12-15T07:33:43.020Z,98370.00
2022-12-15T07:36:09.916Z,98370.88
2022-12-15T07:38:36.916Z,98384.00
2022-12-15T07:41:05.918Z,98380.25
2022-12-15T07:43:33.086Z,98379.72
2022-12-15T07:46:01.053Z,98381.84
2022-12-15T07:48:27.739Z,98385.13
2022-12-15T07:51:02.738Z,98387.41
2022-12-15T07:53:35.441Z,98394.03
2022-12-15T07:56:08.973Z,98400.91
2022-12-15T07:58:37.464Z,98400.66
2022-12-15T08:01:08.871Z,98386.56
2022-12-15T08:03:37.324Z,98376.44
2022-12-15T08:06:05.594Z,98385.78
2022-12-15T08:08:33.844Z,98384.81
2022-12-15T08:11:08.453Z,98384.50
2022-12-15T08:16:23.235Z,98392.63
2022-12-15T08:18:49.887Z,98389.38
2022-12-15T08:21:16.498Z,98396.47
2022-12-15T08:23:43.100Z,98399.47
2022-12-15T08:26:12.080Z,98408.50
2022-12-15T08:28:40.465Z,98404.44
2022-12-15T08:31:10.603Z,98397.69
2022-12-15T08:33:37.271Z,98410.13
2022-12-15T08:36:07.471Z,98418.63
2022-12-15T08:38:35.293Z,98424.66
2022-12-15T08:41:17.500Z,98436.53
2022-12-15T08:43:48.544Z,98441.28
2022-12-15T08:46:34.746Z,98430.66
2022-12-15T08:49:02.573Z,98439.41
2022-12-15T08:51:31.308Z,98436.78
2022-12-15T08:53:59.781Z,98448.03
2022-12-15T08:56:28.103Z,98444.22
2022-12-15T08:58:57.378Z,98438.25
2022-12-15T09:01:27.013Z,98439.63
2022-12-15T09:03:55.368Z,98435.75
2022-12-15T09:06:25.624Z,98432.16
2022-12-15T09:08:57.001Z,98434.78
2022-12-15T09:11:24.944Z,98428.13
2022-12-15T09:13:52.087Z,98430.38
2022-12-15T09:16:20.184Z,98430.16
2022-12-15T09:18:50.200Z,98426.28
2022-12-15T09:21:17.671Z,98431.28
2022-12-15T09:23:49.243Z,98432.22
2022-12-15T09:26:16.078Z,98439.06
2022-12-15T09:28:43.116Z,98447.50
2022-12-15T09:31:15.784Z,98447.34
2022-12-15T09:33:44.469Z,98453.03
2022-12-15T09:36:13.215Z,98452.38
2022-12-15T09:38:41.304Z,98447.50
2022-12-15T09:41:33.005Z,98444.94
2022-12-15T09:44:16.549Z,98445.50
2022-12-15T09:46:50.026Z,98440.22
2022-12-15T09:49:48.290Z,98431.59
2022-12-15T09:52:22.599Z,98439.31
2022-12-15T09:54:49.554Z,98436.53
2022-12-15T09:57:45.016Z,98438.69
2022-12-15T10:00:16.078Z,98448.84
2022-12-15T10:08:50.726Z,98460.66
2022-12-15T10:11:43.767Z,98453.53
2022-12-15T10:14:24.451Z,98460.44
2022-12-15T10:16:58.559Z,98449.50
2022-12-15T10:19:39.408Z,98452.03
2022-12-15T10:22:10.626Z,98453.56
2022-12-15T10:25:08.690Z,98460.91
2022-12-15T10:27:27.461Z,98457.81
2022-12-15T10:30:01.826Z,98466.06
2022-12-15T10:32:50.864Z,98479.81
2022-12-15T10:35:28.718Z,98475.91
2022-12-15T10:38:00.709Z,98468.38
2022-12-15T10:40:56.723Z,98456.34
2022-12-15T10:43:35.647Z,98459.84
2022-12-15T10:46:12.315Z,98467.84
2022-12-15T10:48:39.851Z,98464.31
2022-12-15T10:51:40.503Z,98467.50
2022-12-15T10:54:10.025Z,98463.72
2022-12-15T10:56:58.762Z,98455.59
2022-12-15T10:59:28.558Z,98463.66
2022-12-15T11:01:55.392Z,98468.91
2022-12-15T11:04:30.492Z,98468.97
2022-12-15T11:07:01.875Z,98466.56
2022-12-15T11:09:34.662Z,98469.28
2022-12-15T11:12:20.032Z,98471.38
2022-12-15T11:14:49.043Z,98473.47
2022-12-15T11:17:23.035Z,98471.47
2022-12-15T11:20:02.828Z,98470.59
2022-12-15T11:22:46.168Z,98472.56
2022-12-15T11:25:36.628Z,98478.03
2022-12-15T11:28:10.995Z,98486.41
2022-12-15T11:30:47.609Z,98480.56
2022-12-15T11:33:15.107Z,98475.75
2022-12-15T11:35:50.549Z,98481.88
2022-12-15T11:38:24.181Z,98483.25
2022-12-15T11:40:52.255Z,98482.94
2022-12-15T11:43:50.470Z,98474.38
2022-12-15T11:46:20.044Z,98479.53
2022-12-15T11:48:58.860Z,98484.00
2022-12-15T11:51:38.447Z,98483.25
2022-12-15T11:54:27.125Z,98487.00
2022-12-15T11:57:11.129Z,98481.72
2022-12-15T11:59:40.712Z,98476.47
2022-12-15T12:02:24.908Z,98476.47
2022-12-15T12:05:19.130Z,98476.16
2022-12-15T12:07:49.681Z,98479.06
2022-12-15T12:10:37.397Z,98483.31
2022-12-15T12:13:16.077Z,98467.88
2022-12-15T12:16:02.453Z,98464.22
2022-12-15T12:18:34.832Z,98463.84
2022-12-15T12:21:19.595Z,98467.03
2022-12-15T12:23:56.016Z,98461.66
2022-12-15T12:26:25.557Z,98470.53
2022-12-15T12:28:58.032Z,98462.38
2022-12-15T12:31:43.330Z,98469.09
2022-12-15T12:34:19.772Z,98464.44
2022-12-15T12:36:48.881Z,98461.56
2022-12-15T12:39:22.845Z,98463.38
2022-12-15T12:42:04.639Z,98468.78
2022-12-15T12:44:42.269Z,98463.38
2022-12-15T12:47:17.874Z,98458.19
2022-12-15T12:49:50.511Z,98454.00
2022-12-15T12:52:22.268Z,98461.59
2022-12-15T12:55:20.010Z,98461.56
2022-12-15T12:57:47.457Z,98461.00
2022-12-15T13:00:21.239Z,98469.41
2022-12-15T13:02:53.272Z,98464.91
2022-12-15T13:05:23.374Z,98453.84
2022-12-15T13:07:57.648Z,98455.53
2022-12-15T13:10:25.668Z,98469.84
2022-12-15T13:12:59.837Z,98471.31
2022-12-15T13:15:34.888Z,98460.78
2022-12-15T13:18:22.714Z,98461.06
2022-12-15T13:20:54.297Z,98450.50
2022-12-15T13:23:23.921Z,98455.56
2022-12-15T13:25:56.671Z,98454.22
2022-12-15T13:28:44.529Z,98461.63
2022-12-15T13:31:23.726Z,98457.66
2022-12-15T13:33:50.451Z,98461.56
2022-12-15T13:36:41.563Z,98457.34
2022-12-15T13:39:17.253Z,98455.28
2022-12-15T13:42:15.285Z,98467.75
2022-12-15T13:44:39.668Z,98471.31
2022-12-15T13:47:16.885Z,98468.50
2022-12-15T13:53:17.312Z,98469.78
2022-12-15T13:55:40.150Z,98470.22
2022-12-15T13:58:15.888Z,98473.78
2022-12-15T14:00:57.197Z,98481.66
2022-12-15T14:03:24.665Z,98478.94
2022-12-15T14:05:57.290Z,98487.50
2022-12-15T14:08:28.479Z,98481.66
2022-12-15T14:13:52.148Z,98487.69
2022-12-15T14:16:22.628Z,98499.03
2022-12-15T14:19:15.779Z,98502.28
2022-12-15T14:21:54.288Z,98500.97
2022-12-15T14:24:40.439Z,98492.34
2022-12-15T14:27:07.838Z,98487.84
2022-12-15T14:29:34.571Z,98490.88
2022-12-15T14:32:01.536Z,98490.75
2022-12-15T14:34:35.707Z,98486.69
2022-12-15T14:37:07.665Z,98493.31
2022-12-15T14:39:43.188Z,98490.00
2022-12-15T14:42:21.526Z,98485.38
2022-12-15T14:44:51.350Z,98492.16
2022-12-15T14:47:27.368Z,98501.25
2022-12-15T14:49:57.230Z,98504.13
2022-12-15T14:52:39.950Z,98494.63
2022-12-15T14:55:34.053Z,98500.72
2022-12-15T14:58:01.697Z,98501.75
2022-12-15T15:00:35.591Z,98500.47
2022-12-15T15:03:06.435Z,98452.31
2022-12-15T15:03:07.606Z,98482.53
2022-12-15T15:03:18.483Z,98499.38
2022-12-15T15:06:07.763Z,98489.81
2022-12-15T15:08:42.980Z,98497.75
2022-12-15T15:11:33.867Z,98495.84
2022-12-15T15:14:05.730Z,98492.22
2022-12-15T15:16:32.413Z,98491.44
2022-12-15T15:19:01.805Z,98494.69
2022-12-15T15:21:30.959Z,98497.16
2022-12-15T15:24:02.935Z,98498.88
2022-12-15T15:26:30.958Z,98501.75
2022-12-15T15:28:58.044Z,98499.59
2022-12-15T15:31:24.712Z,98500.25
2022-12-15T15:33:52.806Z,98500.69
2022-12-15T15:36:19.456Z,98497.59
2022-12-15T15:38:46.898Z,98498.13
2022-12-15T15:41:19.419Z,98491.25
2022-12-15T15:43:46.808Z,98491.78
2022-12-15T15:46:20.804Z,98493.56
2022-12-15T15:48:51.767Z,98487.84
2022-12-15T15:51:18.874Z,98491.38
2022-12-15T15:53:46.483Z,98488.53
2022-12-15T15:56:16.598Z,98472.50
2022-12-15T15:58:43.858Z,98486.06
2022-12-15T16:01:13.533Z,98491.53
2022-12-15T16:03:41.062Z,98496.69
2022-12-15T16:06:16.272Z,98501.75
2022-12-15T16:08:43.433Z,98500.56
2022-12-15T16:11:12.214Z,98510.75
2022-12-15T16:13:39.411Z,98514.06
2022-12-15T16:16:06.656Z,98509.09
2022-12-15T16:18:33.712Z,98509.41
2022-12-15T16:21:00.747Z,98510.31
2022-12-15T16:23:29.296Z,98513.38
2022-12-15T16:26:00.235Z,98515.53
2022-12-15T16:28:29.536Z,98517.09
2022-12-15T16:30:58.705Z,98519.41
2022-12-15T16:33:25.693Z,98519.75
2022-12-15T16:35:53.214Z,98513.94
2022-12-15T16:38:25.806Z,98515.47
2022-12-15T16:40:55.491Z,98511.25
2022-12-15T16:43:28.994Z,98516.31
2022-12-15T16:46:00.025Z,98521.41
2022-12-15T16:48:27.664Z,98527.47
2022-12-15T16:50:59.600Z,98531.81
2022-12-15T16:53:32.215Z,98529.75
2022-12-15T16:56:01.748Z,98541.72
2022-12-15T16:58:32.238Z,98551.16
2022-12-15T17:00:59.039Z,98555.06
2022-12-15T17:03:28.577Z,98554.41
2022-12-15T17:06:01.651Z,98540.56
2022-12-15T17:08:49.996Z,98542.63
2022-12-15T17:11:25.704Z,98544.13
2022-12-15T17:13:55.715Z,98540.81
2022-12-15T17:16:24.543Z,98527.59
2022-12-15T17:18:52.670Z,98532.50
2022-12-15T17:21:26.674Z,98531.44
2022-12-15T17:24:00.264Z,98549.13
2022-12-15T17:26:30.737Z,98538.19
2022-12-15T17:29:06.687Z,98545.81
2022-12-15T17:31:36.010Z,98546.69
2022-12-15T17:34:27.733Z,98552.22
2022-12-15T17:36:56.079Z,98542.22
2022-12-15T17:39:23.967Z,98546.34
2022-12-15T17:42:05.922Z,98544.19
2022-12-15T17:44:38.272Z,98539.47
2022-12-15T17:47:07.494Z,98531.19
2022-12-15T17:49:37.553Z,98524.16
2022-12-15T17:52:27.969Z,98518.78
2022-12-15T17:54:55.004Z,98517.69
2022-12-15T17:57:21.578Z,98528.72
2022-12-15T17:59:48.261Z,98538.19
2022-12-15T18:02:15.534Z,98538.44
2022-12-15T18:04:43.258Z,98542.88
2022-12-15T18:07:17.029Z,98533.06
2022-12-15T18:09:44.070Z,98522.03
2022-12-15T18:12:37.146Z,98507.56
2022-12-15T18:15:16.296Z,98510.59
2022-12-15T18:17:43.033Z,98505.69
2022-12-15T18:20:10.304Z,98509.44
2022-12-15T18:22:36.844Z,98503.13
2022-12-15T18:25:03.653Z,98510.38
2022-12-15T18:27:30.736Z,98514.81
2022-12-15T18:29:57.510Z,98511.03
2022-12-15T18:32:29.740Z,98527.97
2022-12-15T18:34:56.410Z,98526.84
2022-12-15T18:37:24.977Z,98530.41
2022-12-15T18:39:51.989Z,98527.78
2022-12-15T18:42:20.555Z,98530.63
2022-12-15T18:44:50.307Z,98527.19
2022-12-15T18:47:19.628Z,98533.53
2022-12-15T18:49:46.412Z,98535.41
2022-12-15T18:52:22.226Z,98541.50
2022-12-15T18:54:50.575Z,98534.44
2022-12-15T18:57:31.205Z,98523.69
2022-12-15T19:00:15.678Z,98527.72
2022-12-15T19:02:42.655Z,98518.63
2022-12-15T19:05:27.669Z,98518.22
2022-12-15T19:08:01.081Z,98514.19
2022-12-15T19:10:29.645Z,98515.28
2022-12-15T19:12:58.655Z,98508.56
2022-12-15T19:15:26.373Z,98505.75
2022-12-15T19:18:11.542Z,98507.03
2022-12-15T19:20:56.859Z,98519.47
2022-12-15T19:23:24.015Z,98519.75
2022-12-15T19:25:51.843Z,98514.16
2022-12-15T19:28:21.572Z,98512.97
2022-12-15T19:30:48.815Z,98512.19
2022-12-15T19:33:16.612Z,98507.03
2022-12-15T19:35:46.422Z,98512.97
2022-12-15T19:38:25.579Z,98510.41
2022-12-15T19:40:55.795Z,98506.09
2022-12-15T19:43:23.977Z,98517.38
2022-12-15T19:45:52.047Z,98527.47
2022-12-15T19:48:23.352Z,98526.34
2022-12-15T19:50:52.090Z,98508.72
2022-12-15T19:53:28.199Z,98512.97
2022-12-15T19:55:58.969Z,98517.88
2022-12-15T19:58:31.334Z,98508.72
2022-12-15T20:01:05.040Z,98509.09
2022-12-15T20:03:33.105Z,98512.94
2022-12-15T20:06:01.665Z,98515.59
2022-12-15T20:08:33.251Z,98513.53
2022-12-15T20:11:00.095Z,98503.91
2022-12-15T20:13:26.965Z,98514.31
2022-12-15T20:15:54.465Z,98508.41
2022-12-15T20:18:21.115Z,98503.69
2022-12-15T20:20:48.990Z,98499.38
2022-12-15T20:23:19.628Z,98504.94
2022-12-15T20:25:47.211Z,98505.31
2022-12-15T20:28:17.230Z,98491.84
2022-12-15T20:30:44.355Z,98502.44
2022-12-15T20:33:12.682Z,98497.59
2022-12-15T20:35:40.347Z,98493.78
2022-12-15T20:38:29.905Z,98488.38
2022-12-15T20:40:56.599Z,98478.66
2022-12-15T20:43:24.715Z,98476.25
2022-12-15T20:46:01.571Z,98466.00
2022-12-15T20:48:29.947Z,98457.53
2022-12-15T20:50:56.736Z,98459.50
2022-12-15T20:53:26.397Z,98453.94
2022-12-15T20:55:54.928Z,98455.03
2022-12-15T20:58:22.277Z,98444.72
2022-12-15T21:00:49.951Z,98448.47
2022-12-15T21:03:27.284Z,98450.06
2022-12-15T21:05:55.878Z,98445.56
2022-12-15T21:08:25.249Z,98441.16
2022-12-15T21:10:53.894Z,98431.28
2022-12-15T21:13:26.374Z,98430.44
2022-12-15T21:15:53.900Z,98437.81
2022-12-15T21:19:17.931Z,98432.44
2022-12-15T21:21:18.734Z,98438.91
2022-12-15T21:23:45.772Z,98437.53
2022-12-15T21:26:13.511Z,98432.97
2022-12-15T21:28:40.066Z,98419.16
2022-12-15T21:31:06.729Z,98421.03
2022-12-15T21:33:33.315Z,98418.34
2022-12-15T21:36:00.025Z,98425.75
2022-12-15T21:38:34.079Z,98420.69
2022-12-15T21:41:04.328Z,98415.78
2022-12-15T21:43:33.181Z,98421.97
2022-12-15T21:46:01.293Z,98421.66
2022-12-15T21:48:46.704Z,98418.50
2022-12-15T21:51:17.444Z,98414.81
2022-12-15T21:53:46.029Z,98414.56
2022-12-15T21:56:18.177Z,98423.75
2022-12-15T21:58:46.278Z,98425.44
2022-12-15T22:01:15.065Z,98427.13
2022-12-15T22:03:50.565Z,98429.38
2022-12-15T22:06:22.292Z,98435.47
2022-12-15T22:08:49.304Z,98431.78
2022-12-15T22:11:26.159Z,98431.59
2022-12-15T22:13:55.086Z,98433.31
2022-12-15T22:16:22.206Z,98433.84
2022-12-15T22:18:51.536Z,98440.63
2022-12-15T22:21:18.341Z,98443.13
2022-12-15T22:23:44.965Z,98443.47
2022-12-15T22:26:20.366Z,98449.56
2022-12-15T22:28:46.909Z,98447.25
2022-12-15T22:31:13.583Z,98444.94
2022-12-15T22:33:40.196Z,98445.97
2022-12-15T22:36:07.194Z,98438.00
2022-12-15T22:38:34.292Z,98436.41
2022-12-15T22:41:01.453Z,98431.84
2022-12-15T22:43:43.332Z,98446.63
2022-12-15T22:46:13.394Z,98447.44
2022-12-15T22:48:42.452Z,98444.59
2022-12-15T22:51:12.838Z,98455.38
2022-12-15T22:53:39.357Z,98452.50
2022-12-15T22:56:14.389Z,98444.50
2022-12-15T22:58:45.150Z,98445.66
2022-12-15T23:01:12.259Z,98453.28
2022-12-15T23:03:38.967Z,98455.91
2022-12-15T23:06:05.695Z,98455.69
2022-12-15T23:08:32.874Z,98465.16
2022-12-15T23:11:18.584Z,98457.91
2022-12-15T23:13:45.367Z,98459.50
2022-12-15T23:16:21.525Z,98463.16
2022-12-15T23:18:51.778Z,98466.16
2022-12-15T23:21:19.665Z,98468.00
2022-12-15T23:23:46.439Z,98472.56
2022-12-15T23:26:14.346Z,98467.09
2022-12-15T23:28:41.335Z,98462.38
2022-12-15T23:31:08.897Z,98452.34
2022-12-15T23:33:36.436Z,98444.56
2022-12-15T23:36:04.587Z,98431.78
2022-12-15T23:38:31.637Z,98418.41
2022-12-15T23:40:59.141Z,98424.50
2022-12-15T23:43:27.277Z,98419.50
2022-12-15T23:46:05.541Z,98420.91
2022-12-15T23:48:34.616Z,98410.22
2022-12-15T23:51:18.606Z,98411.16
2022-12-15T23:53:46.852Z,98409.38
2022-12-15T23:56:15.168Z,98417.72
2022-12-15T23:58:43.732Z,98417.25
